Muir Army Air Field (Fort Indiantown Gap) Airport
KMUI : now visible

Airfield :











YOU CAN JOIN US ON...

 
LOGIN :

Register | Disclaimer

   EN    FR    IT 

 









Legend :    VFR   Marginal VFR   IFR   Intensive IFR   Very Intensive IFR
Visi :
Ceiling :
>= 8 km
>= 3000ft
5 to 8 km
1000 to 3000 ft
1500m to 5 km
500 to 1000 ft
800 to 1500m
200 to 500 ft
< 800m
< 200 ft
Symbols :   Thunderstorms  Fog  Heavy snow  Heavy precipitations  Wind > 20 kt






- Airport Elevation : 488 ft


KMUI - Muir Army Air Field (Fort Indiantown Gap)

CURRENT METAR :
  • 181156Z 00000KT 10SM FEW250 14/04 A3005 RMK AO2A SLP177 T01370035 10138 20108

EXPIRED METARs :
  • 181056Z 00000KT 10SM SCT250 12/05 A3002 RMK AO2A SLP168 T01170047 $
  • 180956Z AUTO 32005KT 10SM CLR 11/03 A3000 RMK AO2 SLP161 T01120027

TAF TAF KMUI
Valid from the 18 at 11:00 until the 19 at 17:00 UTC


181102Z 1811/1917 VRB06KT 9999 SKC QNH3000INS
BECMG 1817/1818 16012KT 9999 FEW030 BKN055 QNH2987INS
BECMG 1902/1903 17009KT 9000 -RA SCT004 BKN030 OVC050 QNH2967INS
BECMG 1911/1912 17010G15KT 9999 NSW BKN004 OVC030 QNH2964INS TX23/1819Z TN07/1811Z
KZNY FIR / North America



MET'MAP, your aeronautical weather chart ! - Copyright ORBIFLY December 2007 - Disclaimer

ORBIFLY MET'MAP TEAM :

Programming & Development : Alexandra Zaïnal
Original concept : Baudouin d'Aumeries
Technical & hardware support : Manuel Goepfert
Assistance : Marc-Olivier Méhu

Contact : metmap@orbifly.com




SOURCES & CREDITS :

   NOAA       Earth
Advisory